Brownstown, Michigan
Current Conditions -  °F | °C
As of 8:53 AM on Friday 28 Nov 2014 (Local Time) from KDTW Reporting Station
Overcast Overcast  
Wind Chill: 20°   Ceiling: 4000
Heat Index: 20°   Visibility: 10mi
Dew Point:   Wind: 3mph
Humidity: 60%   Direction: 190°S
Pressure: 30.35"   Gusts: NA
Location:  42.1166°N, 83.4023°W
Report Text: KDTW 281353Z 19003KT 10SM BKN040 BKN120 OVC200 M07/M13 A3035 RMK AO2 SLP286 T10671133 $
Loading
Personal Weather Stations






























Interactive Weather Map New forecast layout! Learn more

10-Day Weather Forecast

Advertisements
Track Severe Weather on mobile